Time;durP1;ratioP1;P1;durP2;ratioP2;P2;SDS_P1;SDS_P2;PMS_P1;PMS_P2;Temp;Humidity;BMP_temperature;BMP_pressure;BME280_temperature;BME280_humidity;BME280_pressure;Samples;Min_cycle;Max_cycle;Signal;HPM_P1;HPM_P2
2023/07/09 00:02:15;;;;;;;;;18.33;18.00;;;;;;;;4751588;29;166269;-87
2023/07/09 00:04:41;;;;;;;;;17.33;17.33;;;;;;;;4731437;29;125813;-87
2023/07/09 00:07:11;;;;;;;;;16.67;16.67;;;;;;;;4765158;29;103880;-87
2023/07/09 00:09:37;;;;;;;;;16.67;14.67;;;;;;;;4790899;29;67204;-87
2023/07/09 00:12:02;;;;;;;;;18.67;18.67;;;;;;;;4796098;29;56425;-87
2023/07/09 00:14:27;;;;;;;;;16.33;16.33;;;;;;;;4784170;29;41994;-87
2023/07/09 00:16:52;;;;;;;;;14.33;14.33;;;;;;;;4800414;29;50715;-87
2023/07/09 00:19:19;;;;;;;;;16.67;16.33;;;;;;;;4789768;29;60902;-87
2023/07/09 00:21:45;;;;;;;;;18.33;18.00;;;;;;;;4784126;29;41407;-87
2023/07/09 00:24:14;;;;;;;;;15.00;14.00;;;;;;;;4782287;29;44484;-87
2023/07/09 00:26:40;;;;;;;;;18.00;17.33;;;;;;;;4796724;29;46578;-87
2023/07/09 00:29:10;;;;;;;;;14.00;14.00;;;;;;;;4789093;29;49895;-87
2023/07/09 00:31:38;;;;;;;;;18.00;18.00;;;;;;;;4795157;29;45231;-87
2023/07/09 00:34:04;;;;;;;;;23.33;19.00;;;;;;;;4780536;29;43508;-87
2023/07/09 00:36:33;;;;;;;;;16.00;16.00;;;;;;;;4797634;29;46703;-87
2023/07/09 00:39:04;;;;;;;;;20.00;19.67;;;;;;;;4797946;29;41552;-87
2023/07/09 00:41:32;;;;;;;;;14.33;14.33;;;;;;;;4797147;29;43337;-87
2023/07/09 00:43:59;;;;;;;;;16.00;16.00;;;;;;;;4795658;29;47352;-87
2023/07/09 00:46:26;;;;;;;;;16.33;16.33;;;;;;;;4778438;29;47665;-87
2023/07/09 00:49:05;;;;;;;;;18.00;18.00;;;;;;;;4784765;29;45370;-87
2023/07/09 00:51:31;;;;;;;;;12.67;12.67;;;;;;;;4780229;29;48294;-87
2023/07/09 00:53:58;;;;;;;;;18.67;18.67;;;;;;;;4778791;29;46981;-87
2023/07/09 00:56:29;;;;;;;;;18.67;18.67;;;;;;;;4779466;29;46206;-87
2023/07/09 00:58:55;;;;;;;;;13.00;12.67;;;;;;;;4777876;29;42660;-87
2023/07/09 01:01:20;;;;;;;;;16.33;16.33;;;;;;;;4789215;29;42267;-87
2023/07/09 01:03:48;;;;;;;;;20.00;20.00;;;;;;;;4794387;29;64915;-87
2023/07/09 01:06:15;;;;;;;;;17.33;17.33;;;;;;;;4776296;29;55829;-87
2023/07/09 01:08:43;;;;;;;;;16.67;16.67;;;;;;;;4795471;29;52847;-87
2023/07/09 01:11:21;;;;;;;;;15.33;15.00;;;;;;;;4779664;29;45319;-87
2023/07/09 01:13:47;;;;;;;;;11.00;11.00;;;;;;;;4795507;29;51745;-87
2023/07/09 01:16:12;;;;;;;;;14.00;14.00;;;;;;;;4791697;29;62798;-87
2023/07/09 01:18:40;;;;;;;;;17.00;16.00;;;;;;;;4799706;29;73851;-87
2023/07/09 01:21:15;;;;;;;;;17.33;17.33;;;;;;;;4796290;29;59077;-87
2023/07/09 01:23:43;;;;;;;;;14.33;14.33;;;;;;;;4778883;29;45501;-87
2023/07/09 01:26:11;;;;;;;;;16.67;16.00;;;;;;;;4804934;29;46422;-87
2023/07/09 01:28:36;;;;;;;;;17.67;17.67;;;;;;;;4792147;29;49371;-87
2023/07/09 01:31:04;;;;;;;;;12.67;12.67;;;;;;;;4793392;29;55907;-87
2023/07/09 01:33:29;;;;;;;;;12.33;12.33;;;;;;;;4795549;29;52182;-87
2023/07/09 01:36:00;;;;;;;;;20.00;20.00;;;;;;;;4793400;29;53922;-87
2023/07/09 01:38:30;;;;;;;;;11.00;11.00;;;;;;;;4797612;29;49710;-87
2023/07/09 01:40:56;;;;;;;;;13.33;13.33;;;;;;;;4795255;29;46307;-87
2023/07/09 01:43:21;;;;;;;;;18.00;18.00;;;;;;;;4783546;29;74261;-87
2023/07/09 01:45:49;;;;;;;;;19.67;19.67;;;;;;;;4792047;29;62525;-87
2023/07/09 01:48:15;;;;;;;;;16.33;16.33;;;;;;;;4789697;29;47990;-87
2023/07/09 01:50:42;;;;;;;;;13.67;13.67;;;;;;;;4787867;29;50972;-87
2023/07/09 01:53:08;;;;;;;;;14.67;14.67;;;;;;;;4805025;29;43583;-87
2023/07/09 01:55:33;;;;;;;;;17.33;17.33;;;;;;;;4799712;29;41576;-87
2023/07/09 01:57:59;;;;;;;;;15.00;15.00;;;;;;;;4798680;29;47226;-87
2023/07/09 02:00:24;;;;;;;;;17.33;17.00;;;;;;;;4785135;29;64356;-87
2023/07/09 02:02:50;;;;;;;;;18.33;18.33;;;;;;;;4793789;29;48050;-87
2023/07/09 02:05:17;;;;;;;;;14.33;14.33;;;;;;;;4800592;29;38448;-87
2023/07/09 02:07:42;;;;;;;;;18.00;18.00;;;;;;;;4801789;29;37023;-87
2023/07/09 02:10:08;;;;;;;;;16.00;16.00;;;;;;;;4793048;29;32673;-87
2023/07/09 02:12:33;;;;;;;;;20.00;20.00;;;;;;;;4810990;29;30650;-87
2023/07/09 02:14:58;;;;;;;;;18.00;16.67;;;;;;;;4790114;29;31746;-87
2023/07/09 02:17:24;;;;;;;;;15.67;15.67;;;;;;;;4804533;29;34295;-87
2023/07/09 02:19:50;;;;;;;;;19.00;17.50;;;;;;;;4469897;29;10645653;-87
2023/07/09 02:22:15;;;;;;;;;16.67;16.67;;;;;;;;4717106;29;1570002;-87
2023/07/09 02:24:40;;;;;;;;;15.50;15.25;;;;;;;;3172355;29;16792739;-87
2023/07/09 02:27:07;;;;;;;;;19.67;19.67;;;;;;;;4803567;29;36387;-87
2023/07/09 02:29:33;;;;;;;;;15.00;15.00;;;;;;;;4801694;29;35226;-87
2023/07/09 02:32:00;;;;;;;;;19.67;18.33;;;;;;;;4802993;29;35297;-87
2023/07/09 02:34:26;;;;;;;;;15.67;14.33;;;;;;;;4801222;29;34053;-87
2023/07/09 02:36:52;;;;;;;;;12.33;12.33;;;;;;;;4788443;29;34879;-87
2023/07/09 02:39:17;;;;;;;;;21.67;21.33;;;;;;;;4807217;29;38576;-87
2023/07/09 02:41:43;;;;;;;;;21.00;19.33;;;;;;;;4805573;29;32645;-87
2023/07/09 02:44:08;;;;;;;;;17.67;17.67;;;;;;;;4804138;29;40970;-87
2023/07/09 02:46:33;;;;;;;;;16.33;16.33;;;;;;;;4787619;29;37089;-87
2023/07/09 02:48:59;;;;;;;;;21.33;21.33;;;;;;;;4801718;29;37116;-87
2023/07/09 02:51:28;;;;;;;;;19.33;19.33;;;;;;;;4802835;29;36949;-87
2023/07/09 02:53:54;;;;;;;;;17.33;17.33;;;;;;;;4803820;29;33556;-87
2023/07/09 02:56:19;;;;;;;;;18.00;18.00;;;;;;;;4802175;29;35052;-87
2023/07/09 02:58:44;;;;;;;;;17.67;17.67;;;;;;;;4783804;29;41784;-87
2023/07/09 03:01:10;;;;;;;;;13.67;13.67;;;;;;;;4781791;29;53443;-87
2023/07/09 03:03:35;;;;;;;;;18.33;18.33;;;;;;;;4802198;29;36736;-87
2023/07/09 03:06:00;;;;;;;;;19.33;19.33;;;;;;;;4784066;29;36693;-87
2023/07/09 03:08:25;;;;;;;;;20.33;20.33;;;;;;;;4788745;29;35910;-87
2023/07/09 03:10:51;;;;;;;;;17.67;16.00;;;;;;;;4797653;29;48444;-87
2023/07/09 03:13:16;;;;;;;;;25.00;23.00;;;;;;;;4786103;29;34999;-87
2023/07/09 03:15:41;;;;;;;;;24.33;22.67;;;;;;;;4802041;29;37917;-87
2023/07/09 03:18:06;;;;;;;;;21.00;21.00;;;;;;;;4801514;29;35620;-87
2023/07/09 03:20:32;;;;;;;;;17.00;16.00;;;;;;;;4801959;29;45626;-87
2023/07/09 03:22:57;;;;;;;;;18.33;17.67;;;;;;;;4802347;29;41171;-87
2023/07/09 03:25:22;;;;;;;;;19.00;17.67;;;;;;;;4786854;29;34991;-87
2023/07/09 03:27:48;;;;;;;;;14.33;14.33;;;;;;;;4807672;29;34771;-87
2023/07/09 03:30:14;;;;;;;;;16.00;15.00;;;;;;;;4804078;29;35336;-87
2023/07/09 03:32:39;;;;;;;;;16.67;16.67;;;;;;;;4806185;29;34635;-87
2023/07/09 03:35:04;;;;;;;;;18.25;17.00;;;;;;;;4735999;29;2012036;-87
2023/07/09 03:37:30;;;;;;;;;17.67;17.67;;;;;;;;4789798;29;33891;-87
2023/07/09 03:39:55;;;;;;;;;15.67;14.67;;;;;;;;4803520;29;35447;-87
2023/07/09 03:42:20;;;;;;;;;14.67;14.67;;;;;;;;4807575;29;33518;-87
2023/07/09 03:44:45;;;;;;;;;12.67;12.67;;;;;;;;4791778;29;31958;-87
2023/07/09 03:47:10;;;;;;;;;15.00;13.67;;;;;;;;4808587;29;40478;-87
2023/07/09 03:49:36;;;;;;;;;10.33;10.33;;;;;;;;4805808;29;32392;-87
2023/07/09 03:52:01;;;;;;;;;15.00;15.00;;;;;;;;4807352;29;33969;-87
2023/07/09 03:54:27;;;;;;;;;18.67;18.33;;;;;;;;4806956;29;33392;-87
2023/07/09 03:56:52;;;;;;;;;14.33;14.33;;;;;;;;4807140;29;32103;-87
2023/07/09 03:59:17;;;;;;;;;17.67;17.67;;;;;;;;4790137;29;39853;-87
2023/07/09 04:01:46;;;;;;;;;14.00;14.00;;;;;;;;4790952;29;32007;-87
2023/07/09 04:04:11;;;;;;;;;12.00;12.00;;;;;;;;4808060;29;31372;-87
2023/07/09 04:06:37;;;;;;;;;11.67;11.67;;;;;;;;4816793;29;31545;-87
2023/07/09 04:09:02;;;;;;;;;15.00;14.33;;;;;;;;4808953;29;35219;-87
2023/07/09 04:11:27;;;;;;;;;19.33;19.33;;;;;;;;4791931;29;30805;-87
2023/07/09 04:13:53;;;;;;;;;21.33;21.00;;;;;;;;4791777;29;34771;-86
2023/07/09 04:16:18;;;;;;;;;18.67;18.33;;;;;;;;4813878;29;31511;-87
2023/07/09 04:18:43;;;;;;;;;17.33;17.33;;;;;;;;4791253;29;32166;-87
2023/07/09 04:21:08;;;;;;;;;15.67;14.00;;;;;;;;4790408;29;35852;-87
2023/07/09 04:23:33;;;;;;;;;14.33;14.33;;;;;;;;4808260;29;31011;-87
2023/07/09 04:26:02;;;;;;;;;16.33;14.33;;;;;;;;4794876;29;34345;-87
2023/07/09 04:28:27;;;;;;;;;12.33;12.33;;;;;;;;4791809;29;31843;-87
2023/07/09 04:30:53;;;;;;;;;14.67;14.00;;;;;;;;4789230;29;36230;-87
2023/07/09 04:33:18;;;;;;;;;24.00;24.00;;;;;;;;4789857;29;35256;-87
2023/07/09 04:35:47;;;;;;;;;20.67;20.67;;;;;;;;4789040;29;33564;-87
2023/07/09 04:38:13;;;;;;;;;24.33;24.33;;;;;;;;4807589;29;32320;-87
2023/07/09 04:40:39;;;;;;;;;19.33;18.67;;;;;;;;4803976;29;31882;-87
2023/07/09 04:43:04;;;;;;;;;20.00;20.00;;;;;;;;4808574;29;31878;-87
2023/07/09 04:45:29;;;;;;;;;14.33;13.00;;;;;;;;4806786;29;36874;-87
2023/07/09 04:47:54;;;;;;;;;8.67;8.67;;;;;;;;4808714;29;30820;-86
2023/07/09 04:50:20;;;;;;;;;13.67;13.67;;;;;;;;4806826;29;30470;-87
2023/07/09 04:52:45;;;;;;;;;13.33;13.33;;;;;;;;4790385;29;33198;-87
2023/07/09 04:55:10;;;;;;;;;14.67;14.67;;;;;;;;4809810;29;32999;-87
2023/07/09 04:57:36;;;;;;;;;10.00;10.00;;;;;;;;4807590;29;30913;-87
2023/07/09 05:00:01;;;;;;;;;14.00;14.00;;;;;;;;4788313;29;30246;-87
2023/07/09 05:02:27;;;;;;;;;13.67;13.67;;;;;;;;4809169;29;35027;-87
2023/07/09 05:04:52;;;;;;;;;10.67;10.67;;;;;;;;4809045;29;30517;-87
2023/07/09 05:07:17;;;;;;;;;11.67;11.67;;;;;;;;4807412;29;33452;-87
2023/07/09 05:09:43;;;;;;;;;8.67;8.67;;;;;;;;4792848;29;30157;-87
2023/07/09 05:12:08;;;;;;;;;8.67;8.67;;;;;;;;4821806;29;29559;-87
2023/07/09 05:14:33;;;;;;;;;6.67;6.67;;;;;;;;4796631;29;29770;-87
2023/07/09 05:16:59;;;;;;;;;11.00;10.00;;;;;;;;4791840;29;29715;-87
2023/07/09 05:19:24;;;;;;;;;10.67;10.67;;;;;;;;4791379;29;30062;-87
2023/07/09 05:21:49;;;;;;;;;9.33;9.33;;;;;;;;4790236;29;34480;-87
2023/07/09 05:24:14;;;;;;;;;6.00;6.00;;;;;;;;4809597;29;29649;-87
2023/07/09 05:26:40;;;;;;;;;6.67;6.67;;;;;;;;4796929;29;30416;-87
2023/07/09 05:29:05;;;;;;;;;6.00;6.00;;;;;;;;4808231;29;29169;-87
2023/07/09 05:31:31;;;;;;;;;3.00;3.00;;;;;;;;4807879;29;31656;-87
2023/07/09 05:33:58;;;;;;;;;7.00;7.00;;;;;;;;4791195;29;34392;-87
2023/07/09 05:36:24;;;;;;;;;4.33;4.33;;;;;;;;4807074;29;29520;-87
2023/07/09 05:38:52;;;;;;;;;7.33;7.33;;;;;;;;4807141;29;29360;-87
2023/07/09 05:41:17;;;;;;;;;5.67;5.67;;;;;;;;4791135;29;31485;-87
2023/07/09 05:43:44;;;;;;;;;4.33;4.33;;;;;;;;4808204;29;30127;-87
2023/07/09 05:46:09;;;;;;;;;7.00;7.00;;;;;;;;4811426;29;29298;-87
2023/07/09 05:48:34;;;;;;;;;5.67;5.67;;;;;;;;4811372;29;29215;-87
2023/07/09 05:51:00;;;;;;;;;5.33;5.33;;;;;;;;4791443;29;32484;-87
2023/07/09 05:53:25;;;;;;;;;5.67;5.67;;;;;;;;4808994;29;29178;-87
2023/07/09 05:55:56;;;;;;;;;4.67;4.67;;;;;;;;4807089;29;28963;-87
2023/07/09 05:58:22;;;;;;;;;4.00;4.00;;;;;;;;4792523;29;29240;-87
2023/07/09 06:00:56;;;;;;;;;4.00;4.00;;;;;;;;4790608;29;29302;-87
2023/07/09 06:03:22;;;;;;;;;4.00;4.00;;;;;;;;4806957;29;31992;-87
2023/07/09 06:05:49;;;;;;;;;5.00;5.00;;;;;;;;4814323;29;28927;-88
2023/07/09 06:08:14;;;;;;;;;5.00;5.00;;;;;;;;4792368;29;28998;-87
2023/07/09 06:10:41;;;;;;;;;5.00;5.00;;;;;;;;4814559;29;28895;-87
2023/07/09 06:13:07;;;;;;;;;4.67;4.67;;;;;;;;4815087;29;29009;-87
2023/07/09 06:15:33;;;;;;;;;5.00;5.00;;;;;;;;4795350;29;30132;-87
2023/07/09 06:17:58;;;;;;;;;5.00;5.00;;;;;;;;4808223;29;28979;-87
2023/07/09 06:20:23;;;;;;;;;5.00;5.00;;;;;;;;4816061;29;28873;-87
2023/07/09 06:22:48;;;;;;;;;4.00;4.00;;;;;;;;4808259;29;29048;-87
2023/07/09 06:25:14;;;;;;;;;4.33;4.33;;;;;;;;4806626;29;29069;-87
2023/07/09 06:27:39;;;;;;;;;6.67;5.00;;;;;;;;4794720;29;29206;-87
2023/07/09 06:30:05;;;;;;;;;5.00;5.00;;;;;;;;4791868;29;31979;-87
2023/07/09 06:32:30;;;;;;;;;5.00;5.00;;;;;;;;4814403;29;28884;-87
2023/07/09 06:34:55;;;;;;;;;5.00;5.00;;;;;;;;4812135;29;29151;-87
2023/07/09 06:37:20;;;;;;;;;5.67;5.67;;;;;;;;4790281;29;30099;-87
2023/07/09 06:39:45;;;;;;;;;5.00;5.00;;;;;;;;4806129;29;29067;-87
2023/07/09 06:42:11;;;;;;;;;6.00;6.00;;;;;;;;4807985;29;28996;-86
2023/07/09 06:44:36;;;;;;;;;4.00;4.00;;;;;;;;4807393;29;28787;-85
2023/07/09 06:47:01;;;;;;;;;4.00;4.00;;;;;;;;4807797;29;28871;-86
2023/07/09 06:49:27;;;;;;;;;3.67;3.67;;;;;;;;4807379;29;29921;-86
2023/07/09 06:51:52;;;;;;;;;5.00;5.00;;;;;;;;4807972;29;28866;-85
2023/07/09 06:54:18;;;;;;;;;5.00;5.00;;;;;;;;4807237;29;28801;-85
2023/07/09 06:56:43;;;;;;;;;4.00;4.00;;;;;;;;4789551;29;28797;-85
2023/07/09 06:59:08;;;;;;;;;3.33;3.33;;;;;;;;4807441;29;29098;-85
2023/07/09 07:01:33;;;;;;;;;5.00;5.00;;;;;;;;4807641;29;28757;-85
2023/07/09 07:04:00;;;;;;;;;4.33;4.33;;;;;;;;4808107;29;29167;-87
2023/07/09 07:06:25;;;;;;;;;3.33;3.33;;;;;;;;4789249;29;31358;-87
2023/07/09 07:08:51;;;;;;;;;4.33;4.33;;;;;;;;4804349;29;29243;-87
2023/07/09 07:11:16;;;;;;;;;4.33;4.33;;;;;;;;4807794;29;28939;-87
2023/07/09 07:13:44;;;;;;;;;5.00;5.00;;;;;;;;4807892;29;28910;-87
2023/07/09 07:16:10;;;;;;;;;4.00;4.00;;;;;;;;4805471;29;28800;-87
2023/07/09 07:18:35;;;;;;;;;4.67;4.67;;;;;;;;4806693;29;28917;-87
2023/07/09 07:21:01;;;;;;;;;4.67;4.67;;;;;;;;4806676;29;28833;-86
2023/07/09 07:23:26;;;;;;;;;4.00;4.00;;;;;;;;4807923;29;28826;-86
2023/07/09 07:25:51;;;;;;;;;4.33;4.33;;;;;;;;4807587;29;29200;-86
2023/07/09 07:28:17;;;;;;;;;5.33;5.33;;;;;;;;4798923;29;30144;-87
2023/07/09 07:30:42;;;;;;;;;5.33;5.33;;;;;;;;4807076;29;28976;-87
2023/07/09 07:33:08;;;;;;;;;4.00;4.00;;;;;;;;4806805;29;28813;-87
2023/07/09 07:35:33;;;;;;;;;5.00;5.00;;;;;;;;4807814;29;28856;-87
2023/07/09 07:37:58;;;;;;;;;5.00;5.00;;;;;;;;4807646;29;29205;-87
2023/07/09 07:40:24;;;;;;;;;4.33;4.33;;;;;;;;4806384;29;28827;-87
2023/07/09 07:42:49;;;;;;;;;5.00;4.00;;;;;;;;4813550;29;28945;-87
2023/07/09 07:45:14;;;;;;;;;5.33;5.33;;;;;;;;4808145;29;29075;-87
2023/07/09 07:47:40;;;;;;;;;5.67;5.67;;;;;;;;4800360;29;30334;-87
2023/07/09 07:50:06;;;;;;;;;5.33;5.33;;;;;;;;4805209;29;29050;-86
2023/07/09 07:52:32;;;;;;;;;4.33;4.33;;;;;;;;4807511;29;28942;-86
2023/07/09 07:54:57;;;;;;;;;6.00;6.00;;;;;;;;4807282;29;29002;-86
2023/07/09 07:57:24;;;;;;;;;3.00;3.00;;;;;;;;4806266;29;29019;-87
2023/07/09 07:59:49;;;;;;;;;7.33;7.33;;;;;;;;4807592;29;28842;-87
2023/07/09 08:02:14;;;;;;;;;5.00;5.00;;;;;;;;4807106;29;29030;-86
2023/07/09 08:04:40;;;;;;;;;3.67;3.67;;;;;;;;4791325;29;28865;-87
2023/07/09 08:07:07;;;;;;;;;5.33;5.33;;;;;;;;4806218;29;29711;-87
2023/07/09 08:09:33;;;;;;;;;10.00;10.00;;;;;;;;4801498;29;29680;-87
2023/07/09 08:11:58;;;;;;;;;7.00;7.00;;;;;;;;4805424;29;28971;-86
2023/07/09 08:14:23;;;;;;;;;5.00;5.00;;;;;;;;4807257;29;28834;-87
2023/07/09 08:16:48;;;;;;;;;4.67;4.67;;;;;;;;4810021;29;28992;-87
2023/07/09 08:19:14;;;;;;;;;5.00;5.00;;;;;;;;4798989;29;29024;-87
2023/07/09 08:21:39;;;;;;;;;5.00;5.00;;;;;;;;4810477;29;28440;-87
2023/07/09 08:24:04;;;;;;;;;4.00;4.00;;;;;;;;4810139;29;28994;-86
2023/07/09 08:26:31;;;;;;;;;5.33;5.33;;;;;;;;4809738;29;29802;-87
2023/07/09 08:28:56;;;;;;;;;4.33;4.33;;;;;;;;4809814;29;28853;-88
2023/07/09 08:31:22;;;;;;;;;4.33;4.33;;;;;;;;4793059;29;28994;-91
2023/07/09 08:33:47;;;;;;;;;4.33;4.33;;;;;;;;4810577;29;28943;-88
2023/07/09 08:36:12;;;;;;;;;5.00;5.00;;;;;;;;4809920;29;29283;-92
2023/07/09 08:38:38;;;;;;;;;3.67;3.67;;;;;;;;4809989;29;28909;-87
2023/07/09 08:44:13;;;;;;;;;5.67;5.67;;;;;;;;4791027;29;28771;-87
2023/07/09 08:46:38;;;;;;;;;4.00;4.00;;;;;;;;4809994;29;28906;-86
2023/07/09 08:49:12;;;;;;;;;6.00;6.00;;;;;;;;4809548;29;28841;-87
2023/07/09 08:51:39;;;;;;;;;4.67;4.67;;;;;;;;4809494;29;28961;-87
2023/07/09 08:54:08;;;;;;;;;5.33;5.33;;;;;;;;4806181;29;28797;-87
2023/07/09 08:56:34;;;;;;;;;5.67;5.67;;;;;;;;4803899;29;29015;-87
2023/07/09 08:59:05;;;;;;;;;4.00;4.00;;;;;;;;4807061;29;28957;-90
2023/07/09 09:01:35;;;;;;;;;3.00;3.00;;;;;;;;4807029;29;28866;-87
2023/07/09 09:04:05;;;;;;;;;4.67;4.33;;;;;;;;4796702;29;28876;-87
2023/07/09 09:06:31;;;;;;;;;4.00;4.00;;;;;;;;4801568;29;29008;-87
2023/07/09 09:09:14;;;;;;;;;5.67;5.67;;;;;;;;4808617;29;29003;-87
2023/07/09 09:11:46;;;;;;;;;4.67;4.67;;;;;;;;4802349;29;29058;-86
2023/07/09 09:14:32;;;;;;;;;3.67;3.67;;;;;;;;4808100;29;28994;-87
2023/07/09 09:16:58;;;;;;;;;5.67;5.67;;;;;;;;4808705;29;29312;-87
2023/07/09 09:19:26;;;;;;;;;4.00;4.00;;;;;;;;4809285;29;28980;-87
2023/07/09 09:21:57;;;;;;;;;4.33;4.33;;;;;;;;4808365;29;28964;-87
2023/07/09 09:24:36;;;;;;;;;4.00;4.00;;;;;;;;4807932;29;29093;-87
2023/07/09 09:27:01;;;;;;;;;5.00;5.00;;;;;;;;4808772;29;29946;-87
2023/07/09 09:29:27;;;;;;;;;4.67;4.67;;;;;;;;4808940;29;29071;-87
2023/07/09 09:31:55;;;;;;;;;7.00;7.00;;;;;;;;4807971;29;29075;-94
2023/07/09 09:34:29;;;;;;;;;7.33;7.33;;;;;;;;4798730;29;28870;-93
2023/07/09 09:36:55;;;;;;;;;6.67;6.67;;;;;;;;4801174;29;30380;-93
2023/07/09 09:39:22;;;;;;;;;5.00;5.00;;;;;;;;4807513;29;29720;-93
2023/07/09 09:45:13;;;;;;;;;7.00;7.00;;;;;;;;4802280;29;29094;-91
2023/07/09 09:47:38;;;;;;;;;4.67;4.67;;;;;;;;4809170;29;31222;-92
2023/07/09 09:50:04;;;;;;;;;4.67;4.67;;;;;;;;4795567;29;30019;-92
2023/07/09 09:52:32;;;;;;;;;5.00;5.00;;;;;;;;4792590;29;29048;-92
2023/07/09 09:55:02;;;;;;;;;4.00;4.00;;;;;;;;4792229;29;29067;-92
2023/07/09 09:57:31;;;;;;;;;3.33;3.33;;;;;;;;4808586;29;29582;-92
2023/07/09 09:59:56;;;;;;;;;4.00;4.00;;;;;;;;4808748;29;29048;-92
2023/07/09 10:02:23;;;;;;;;;4.00;4.00;;;;;;;;4792583;29;29012;-92
2023/07/09 10:04:48;;;;;;;;;4.67;4.67;;;;;;;;4809092;29;29024;-92
2023/07/09 10:07:21;;;;;;;;;4.33;4.33;;;;;;;;4792346;29;30016;-92
2023/07/09 10:09:46;;;;;;;;;4.00;4.00;;;;;;;;4808458;29;28978;-92
2023/07/09 10:12:36;;;;;;;;;4.67;4.67;;;;;;;;4792231;29;28958;-92
2023/07/09 10:15:19;;;;;;;;;4.33;4.33;;;;;;;;4792452;29;28793;-92
2023/07/09 10:17:57;;;;;;;;;6.00;5.00;;;;;;;;4808670;29;29019;-93
2023/07/09 10:20:25;;;;;;;;;4.00;4.00;;;;;;;;4808589;29;28818;-92
2023/07/09 10:23:12;;;;;;;;;6.00;6.00;;;;;;;;4792372;29;28980;-92
2023/07/09 10:25:56;;;;;;;;;4.00;4.00;;;;;;;;4781249;29;28892;-92
2023/07/09 10:28:42;;;;;;;;;6.00;6.00;;;;;;;;4808380;29;28868;-92
2023/07/09 10:31:11;;;;;;;;;3.67;3.67;;;;;;;;4792213;29;28834;-93
2023/07/09 10:33:53;;;;;;;;;4.00;4.00;;;;;;;;4796808;29;28436;-92
2023/07/09 10:36:37;;;;;;;;;4.00;4.00;;;;;;;;4808545;29;28993;-92
2023/07/09 10:39:02;;;;;;;;;5.33;5.33;;;;;;;;4791914;29;30133;-92
2023/07/09 10:41:28;;;;;;;;;4.00;4.00;;;;;;;;4791808;29;28775;-93
2023/07/09 10:43:57;;;;;;;;;7.67;6.33;;;;;;;;4792305;29;29018;-92
2023/07/09 10:46:24;;;;;;;;;5.00;5.00;;;;;;;;4808481;29;28861;-92
2023/07/09 10:48:51;;;;;;;;;6.00;6.00;;;;;;;;4791615;29;29186;-92
2023/07/09 10:51:26;;;;;;;;;4.33;4.33;;;;;;;;4808095;29;29050;-93
2023/07/09 10:53:57;;;;;;;;;5.67;5.67;;;;;;;;4808301;29;28990;-92
2023/07/09 10:56:25;;;;;;;;;5.00;5.00;;;;;;;;4807872;29;28880;-93
2023/07/09 10:58:51;;;;;;;;;4.00;4.00;;;;;;;;4808002;29;29025;-92
2023/07/09 11:01:19;;;;;;;;;6.00;6.00;;;;;;;;4791511;29;29092;-92
2023/07/09 11:03:53;;;;;;;;;6.67;6.67;;;;;;;;4791966;29;28942;-92
2023/07/09 11:06:25;;;;;;;;;8.00;7.00;;;;;;;;4808847;29;28629;-92
2023/07/09 11:08:53;;;;;;;;;5.00;5.00;;;;;;;;4808184;29;28516;-92
2023/07/09 11:11:34;;;;;;;;;5.00;5.00;;;;;;;;4791810;29;29688;-92
2023/07/09 11:14:03;;;;;;;;;4.67;4.67;;;;;;;;4808280;29;28665;-93
2023/07/09 11:16:30;;;;;;;;;6.33;6.33;;;;;;;;4792122;29;28463;-92
2023/07/09 11:18:58;;;;;;;;;7.33;7.33;;;;;;;;4791498;29;30109;-93
2023/07/09 11:21:23;;;;;;;;;6.00;6.00;;;;;;;;4808289;29;28385;-92
2023/07/09 11:23:50;;;;;;;;;8.67;8.67;;;;;;;;4808008;29;28387;-92
2023/07/09 11:26:32;;;;;;;;;9.33;9.33;;;;;;;;4807965;29;28545;-93
2023/07/09 11:29:07;;;;;;;;;7.00;7.00;;;;;;;;4796242;29;28466;-92
2023/07/09 11:31:39;;;;;;;;;7.00;7.00;;;;;;;;4808042;29;28300;-92
2023/07/09 11:34:07;;;;;;;;;9.67;9.67;;;;;;;;4791823;29;28608;-92
2023/07/09 11:36:33;;;;;;;;;11.00;11.00;;;;;;;;4808042;29;28493;-92
2023/07/09 11:38:58;;;;;;;;;8.67;8.67;;;;;;;;4791363;29;30181;-92
2023/07/09 11:41:34;;;;;;;;;11.00;11.00;;;;;;;;4807432;29;28539;-93
2023/07/09 11:44:04;;;;;;;;;9.67;9.67;;;;;;;;4791694;29;28570;-92
2023/07/09 11:46:30;;;;;;;;;7.00;7.00;;;;;;;;4792564;29;28686;-92
2023/07/09 11:48:57;;;;;;;;;5.67;5.67;;;;;;;;4810913;29;28394;-92
2023/07/09 11:51:43;;;;;;;;;6.00;6.00;;;;;;;;4794650;29;28378;-92
2023/07/09 11:54:12;;;;;;;;;15.67;14.33;;;;;;;;4794116;29;28562;-92
2023/07/09 11:56:37;;;;;;;;;12.67;11.67;;;;;;;;4810851;29;28345;-92
2023/07/09 11:59:05;;;;;;;;;5.00;5.00;;;;;;;;4810928;29;28448;-93
2023/07/09 12:01:34;;;;;;;;;5.00;5.00;;;;;;;;4811134;29;28349;-93
2023/07/09 12:04:00;;;;;;;;;4.00;4.00;;;;;;;;4794606;29;28326;-92
2023/07/09 12:06:30;;;;;;;;;4.00;4.00;;;;;;;;4794812;29;28534;-93
2023/07/09 12:08:56;;;;;;;;;4.00;4.00;;;;;;;;4810579;29;28355;-92
2023/07/09 12:11:21;;;;;;;;;4.00;4.00;;;;;;;;4810807;29;28335;-92
2023/07/09 12:13:46;;;;;;;;;5.67;5.67;;;;;;;;4794585;29;28349;-93
2023/07/09 12:16:41;;;;;;;;;4.00;4.00;;;;;;;;4794734;29;28654;-92
2023/07/09 12:19:08;;;;;;;;;5.33;5.33;;;;;;;;4802259;29;28497;-92
2023/07/09 12:21:36;;;;;;;;;4.00;4.00;;;;;;;;4794365;29;28352;-92
2023/07/09 12:24:02;;;;;;;;;6.00;6.00;;;;;;;;4794185;29;28524;-92
2023/07/09 12:26:30;;;;;;;;;3.33;3.33;;;;;;;;4794223;29;28612;-92
2023/07/09 12:28:57;;;;;;;;;5.00;5.00;;;;;;;;4810429;29;28465;-93
2023/07/09 12:31:27;;;;;;;;;3.67;3.67;;;;;;;;4794426;29;28589;-92
2023/07/09 12:33:53;;;;;;;;;1.00;1.00;;;;;;;;4810651;29;28495;-92
2023/07/09 12:36:19;;;;;;;;;4.00;4.00;;;;;;;;4794332;29;28528;-92
2023/07/09 12:38:46;;;;;;;;;5.00;5.00;;;;;;;;4793899;29;30642;-93
2023/07/09 12:41:31;;;;;;;;;4.33;4.33;;;;;;;;4793827;29;28823;-93
2023/07/09 12:43:56;;;;;;;;;4.00;4.00;;;;;;;;4810579;29;28384;-92
2023/07/09 12:46:22;;;;;;;;;4.67;4.67;;;;;;;;4794182;29;28562;-92
2023/07/09 12:48:48;;;;;;;;;3.33;3.33;;;;;;;;4810221;29;28596;-92
2023/07/09 12:51:16;;;;;;;;;3.00;3.00;;;;;;;;4810218;29;28363;-92
2023/07/09 12:53:41;;;;;;;;;4.00;4.00;;;;;;;;4794057;29;28554;-92
2023/07/09 12:56:10;;;;;;;;;6.67;6.67;;;;;;;;4809964;29;28594;-92
2023/07/09 12:58:37;;;;;;;;;4.67;4.67;;;;;;;;4808668;29;28423;-93
2023/07/09 13:01:16;;;;;;;;;3.33;3.33;;;;;;;;4793554;29;28543;-92
2023/07/09 13:03:41;;;;;;;;;4.67;4.67;;;;;;;;4810268;29;28565;-92
2023/07/09 13:06:25;;;;;;;;;7.00;7.00;;;;;;;;4793757;29;28680;-92
2023/07/09 13:08:57;;;;;;;;;7.00;7.00;;;;;;;;4793411;29;28736;-92
2023/07/09 13:11:22;;;;;;;;;7.33;7.33;;;;;;;;4793286;29;29014;-93
2023/07/09 13:13:55;;;;;;;;;5.33;5.33;;;;;;;;4793494;29;28431;-92
2023/07/09 13:16:20;;;;;;;;;4.67;4.67;;;;;;;;4793729;29;28507;-92
2023/07/09 13:18:46;;;;;;;;;3.33;3.33;;;;;;;;4793284;29;28612;-92
2023/07/09 13:21:16;;;;;;;;;5.33;5.33;;;;;;;;4810128;29;28349;-93
2023/07/09 13:23:42;;;;;;;;;8.00;8.00;;;;;;;;4793361;29;28618;-92
2023/07/09 13:26:08;;;;;;;;;5.00;5.00;;;;;;;;4809717;29;28435;-92
2023/07/09 13:28:33;;;;;;;;;5.00;5.00;;;;;;;;4809682;29;28479;-93
2023/07/09 13:31:08;;;;;;;;;5.00;5.00;;;;;;;;4809901;29;28373;-93
2023/07/09 13:33:33;;;;;;;;;4.00;4.00;;;;;;;;4793467;29;28515;-92
2023/07/09 13:35:58;;;;;;;;;5.00;5.00;;;;;;;;4809920;29;28390;-92
2023/07/09 13:38:24;;;;;;;;;5.00;5.00;;;;;;;;4793051;29;31005;-92
2023/07/09 13:40:51;;;;;;;;;3.33;3.33;;;;;;;;4793003;29;28464;-93
2023/07/09 13:43:26;;;;;;;;;2.67;2.67;;;;;;;;4809748;29;28320;-92
2023/07/09 13:45:51;;;;;;;;;3.67;3.67;;;;;;;;4793345;29;28286;-92
2023/07/09 13:48:18;;;;;;;;;3.00;3.00;;;;;;;;4792943;29;28913;-93
2023/07/09 13:50:44;;;;;;;;;4.67;4.67;;;;;;;;4793227;29;28477;-92
2023/07/09 13:53:16;;;;;;;;;3.00;3.00;;;;;;;;4809449;29;28324;-92
2023/07/09 13:55:42;;;;;;;;;3.00;3.00;;;;;;;;4809329;29;28267;-92
2023/07/09 13:58:11;;;;;;;;;4.00;4.00;;;;;;;;4792904;29;29770;-92
2023/07/09 14:00:37;;;;;;;;;3.00;2.00;;;;;;;;4809393;29;28525;-92
2023/07/09 14:03:05;;;;;;;;;4.00;4.00;;;;;;;;4793165;29;28558;-92
2023/07/09 14:05:30;;;;;;;;;4.00;4.00;;;;;;;;4823385;29;28511;-93
2023/07/09 14:07:56;;;;;;;;;4.00;4.00;;;;;;;;4792965;29;30047;-92
2023/07/09 14:10:21;;;;;;;;;4.00;4.00;;;;;;;;4791997;29;28455;-92
2023/07/09 14:12:47;;;;;;;;;4.33;4.33;;;;;;;;4809388;29;28254;-92
2023/07/09 14:15:14;;;;;;;;;3.00;3.00;;;;;;;;4792984;29;28367;-92
2023/07/09 14:17:40;;;;;;;;;2.67;2.67;;;;;;;;4809155;29;28381;-92
2023/07/09 14:20:05;;;;;;;;;3.00;3.00;;;;;;;;4809105;29;28354;-92
2023/07/09 14:22:34;;;;;;;;;3.00;2.00;;;;;;;;4792971;29;28495;-92
2023/07/09 14:25:18;;;;;;;;;3.00;3.00;;;;;;;;4808623;29;28454;-92
2023/07/09 14:27:43;;;;;;;;;1.33;1.33;;;;;;;;4792684;29;30175;-92
2023/07/09 14:30:13;;;;;;;;;3.33;2.67;;;;;;;;4792548;29;28575;-92
2023/07/09 14:32:41;;;;;;;;;2.00;2.00;;;;;;;;4792776;29;28325;-92
2023/07/09 14:35:17;;;;;;;;;2.00;2.00;;;;;;;;4792634;29;28514;-92
2023/07/09 14:37:43;;;;;;;;;1.33;1.33;;;;;;;;4808850;29;28455;-92
2023/07/09 14:40:09;;;;;;;;;3.00;3.00;;;;;;;;4808446;29;28375;-92
2023/07/09 14:42:35;;;;;;;;;2.00;2.00;;;;;;;;4792596;29;28415;-92